createdAt,value
2019-03-29T00:00:36.895Z,-70
2019-03-29T00:01:36.714Z,-71
2019-03-29T00:02:36.851Z,-71
2019-03-29T00:03:36.727Z,-71
2019-03-29T00:04:36.841Z,-70
2019-03-29T00:05:36.750Z,-70
2019-03-29T00:06:37.734Z,-70
2019-03-29T00:07:39.714Z,-70
2019-03-29T00:08:36.851Z,-70
2019-03-29T00:09:36.730Z,-70
2019-03-29T00:10:36.877Z,-70
2019-03-29T00:11:36.724Z,-70
2019-03-29T00:12:36.848Z,-70
2019-03-29T00:13:36.724Z,-70
2019-03-29T00:14:36.850Z,-69
2019-03-29T00:15:36.751Z,-69
2019-03-29T00:16:36.855Z,-70
2019-03-29T00:17:36.740Z,-70
2019-03-29T00:18:36.860Z,-70
2019-03-29T00:19:36.730Z,-70
2019-03-29T00:20:36.884Z,-70
2019-03-29T00:21:36.732Z,-70
2019-03-29T00:22:36.879Z,-70
2019-03-29T00:23:36.743Z,-70
2019-03-29T00:24:36.873Z,-70
2019-03-29T00:25:36.760Z,-70
2019-03-29T00:26:36.865Z,-70
2019-03-29T00:27:36.739Z,-70
2019-03-29T00:28:37.352Z,-70
2019-03-29T00:29:36.739Z,-70
2019-03-29T00:30:36.905Z,-71
2019-03-29T00:31:36.746Z,-70
2019-03-29T00:32:36.907Z,-70
2019-03-29T00:33:36.742Z,-72
2019-03-29T00:34:36.883Z,-72
2019-03-29T00:35:36.777Z,-72
2019-03-29T00:36:36.883Z,-71
2019-03-29T00:37:36.756Z,-71
2019-03-29T00:38:36.873Z,-71
2019-03-29T00:39:36.749Z,-71
2019-03-29T00:40:36.901Z,-71
2019-03-29T00:41:36.750Z,-71
2019-03-29T00:42:36.880Z,-71
2019-03-29T00:43:36.753Z,-71
2019-03-29T00:44:36.879Z,-71
2019-03-29T00:45:36.762Z,-71
2019-03-29T00:46:38.107Z,-71
2019-03-29T00:47:36.757Z,-71
2019-03-29T00:48:36.893Z,-71
2019-03-29T00:49:36.767Z,-71
2019-03-29T00:50:36.887Z,-71
2019-03-29T00:51:36.783Z,-71
2019-03-29T00:52:36.931Z,-71
2019-03-29T00:53:36.764Z,-71
2019-03-29T00:54:36.887Z,-71
2019-03-29T00:55:36.771Z,-71
2019-03-29T00:56:36.935Z,-71
2019-03-29T00:57:36.764Z,-71
2019-03-29T00:58:36.905Z,-71
2019-03-29T00:59:36.767Z,-71
2019-03-29T01:00:36.905Z,-71
2019-03-29T01:01:36.801Z,-71
2019-03-29T01:02:36.911Z,-72
2019-03-29T01:03:37.093Z,-71
2019-03-29T01:04:36.899Z,-73
2019-03-29T01:05:36.771Z,-72
2019-03-29T01:06:36.940Z,-72
2019-03-29T01:07:36.785Z,-72
2019-03-29T01:08:38.418Z,-72
2019-03-29T01:09:36.774Z,-71
2019-03-29T01:10:36.916Z,-71
2019-03-29T01:11:36.800Z,-70
2019-03-29T01:12:36.952Z,-71
2019-03-29T01:13:36.891Z,-71
2019-03-29T01:14:36.914Z,-71
2019-03-29T01:15:36.781Z,-71
2019-03-29T01:16:36.954Z,-71
2019-03-29T01:17:36.781Z,-71
2019-03-29T01:18:38.309Z,-71
2019-03-29T01:19:36.788Z,-71
2019-03-29T01:20:36.912Z,-72
2019-03-29T01:21:36.809Z,-72
2019-03-29T01:22:36.925Z,-72
2019-03-29T01:23:36.790Z,-72
2019-03-29T01:24:36.929Z,-72
2019-03-29T01:25:36.788Z,-72
2019-03-29T01:26:36.944Z,-72
2019-03-29T01:27:36.790Z,-72
2019-03-29T01:28:36.927Z,-72
2019-03-29T01:29:36.797Z,-71
2019-03-29T01:30:36.933Z,-71
2019-03-29T01:31:36.823Z,-71
2019-03-29T01:32:36.926Z,-71
2019-03-29T01:33:36.805Z,-71
2019-03-29T01:34:36.929Z,-71
2019-03-29T01:35:36.802Z,-72
2019-03-29T01:36:36.958Z,-72
2019-03-29T01:37:36.804Z,-72
2019-03-29T01:38:36.932Z,-71
2019-03-29T01:39:36.808Z,-71
2019-03-29T01:40:36.941Z,-71
2019-03-29T01:41:36.834Z,-71
2019-03-29T01:42:36.936Z,-71
2019-03-29T01:43:36.808Z,-72
2019-03-29T01:44:36.941Z,-72
2019-03-29T01:45:36.810Z,-72
2019-03-29T01:46:38.341Z,-72
2019-03-29T01:47:36.812Z,-71
2019-03-29T01:48:36.949Z,-71
2019-03-29T01:49:36.816Z,-71
2019-03-29T01:50:36.962Z,-71
2019-03-29T01:51:36.816Z,-71
2019-03-29T01:52:36.986Z,-71
2019-03-29T01:53:37.261Z,-71
2019-03-29T01:54:36.946Z,-71
2019-03-29T01:55:36.822Z,-71
2019-03-29T01:56:36.964Z,-71
2019-03-29T01:57:36.846Z,-71
2019-03-29T01:58:36.958Z,-72
2019-03-29T01:59:36.822Z,-72
2019-03-29T02:00:37.259Z,-72
2019-03-29T02:01:36.826Z,-71
2019-03-29T02:02:36.987Z,-71
2019-03-29T02:03:36.828Z,-71
2019-03-29T02:04:36.959Z,-71
2019-03-29T02:05:36.830Z,-71
2019-03-29T02:06:36.956Z,-71
2019-03-29T02:07:37.978Z,-71
2019-03-29T02:08:38.181Z,-71
2019-03-29T02:09:36.835Z,-71
2019-03-29T02:10:36.971Z,-71
2019-03-29T02:11:36.833Z,-71
2019-03-29T02:12:36.988Z,-71
2019-03-29T02:13:36.835Z,-71
2019-03-29T02:14:36.969Z,-71
2019-03-29T02:15:37.183Z,-71
2019-03-29T02:16:36.968Z,-71
2019-03-29T02:17:36.901Z,-71
2019-03-29T02:18:36.982Z,-71
2019-03-29T02:19:36.840Z,-71
2019-03-29T02:20:36.991Z,-71
2019-03-29T02:21:36.843Z,-71
2019-03-29T02:22:37.557Z,-71
2019-03-29T02:23:36.845Z,-71
2019-03-29T02:24:37.039Z,-71
2019-03-29T02:25:36.846Z,-71
2019-03-29T02:26:36.979Z,-71
2019-03-29T02:27:36.873Z,-72
2019-03-29T02:28:36.984Z,-72
2019-03-29T02:29:36.944Z,-72
2019-03-29T02:30:36.991Z,-71
2019-03-29T02:31:36.858Z,-71
2019-03-29T02:32:37.014Z,-71
2019-03-29T02:33:36.857Z,-71
2019-03-29T02:34:36.999Z,-71
2019-03-29T02:35:38.376Z,-71
2019-03-29T02:36:36.987Z,-71
2019-03-29T02:37:36.882Z,-71
2019-03-29T02:38:56.176Z,-71
2019-03-29T02:39:36.864Z,-71
2019-03-29T02:40:36.992Z,-71
2019-03-29T02:41:36.863Z,-71
2019-03-29T02:42:37.025Z,-71
2019-03-29T02:43:37.576Z,-73
2019-03-29T02:44:36.994Z,-74
2019-03-29T02:45:36.867Z,-74
2019-03-29T02:46:37.002Z,-74
2019-03-29T02:47:36.892Z,-74
2019-03-29T02:48:36.994Z,-74
2019-03-29T02:49:36.867Z,-74
2019-03-29T02:50:37.426Z,-73
2019-03-29T02:51:36.869Z,-74
2019-03-29T02:52:37.003Z,-75
2019-03-29T02:53:36.903Z,-76
2019-03-29T02:54:37.055Z,-76
2019-03-29T02:55:36.974Z,-77
2019-03-29T02:56:37.006Z,-77
2019-03-29T02:57:36.876Z,-77
2019-03-29T02:58:37.047Z,-77
2019-03-29T02:59:36.876Z,-77
2019-03-29T03:00:37.015Z,-76
2019-03-29T03:01:36.878Z,-76
2019-03-29T03:02:37.010Z,-75
2019-03-29T03:03:36.913Z,-75
2019-03-29T03:04:37.011Z,-76
2019-03-29T03:05:36.883Z,-75
2019-03-29T03:06:37.017Z,-76
2019-03-29T03:07:36.886Z,-75
2019-03-29T03:08:37.058Z,-76
2019-03-29T03:09:36.889Z,-76
2019-03-29T03:10:37.027Z,-75
2019-03-29T03:11:36.895Z,-75
2019-03-29T03:12:37.020Z,-75
2019-03-29T03:13:36.912Z,-75
2019-03-29T03:14:37.023Z,-74
2019-03-29T03:15:36.891Z,-75
2019-03-29T03:16:37.027Z,-74
2019-03-29T03:17:36.896Z,-74
2019-03-29T03:18:37.057Z,-74
2019-03-29T03:19:36.894Z,-74
2019-03-29T03:20:37.031Z,-74
2019-03-29T03:21:36.898Z,-74
2019-03-29T03:22:37.026Z,-74
2019-03-29T03:23:36.921Z,-74
2019-03-29T03:24:37.032Z,-74
2019-03-29T03:25:36.899Z,-74
2019-03-29T03:26:37.065Z,-74
2019-03-29T03:27:36.906Z,-74
2019-03-29T03:28:37.063Z,-75
2019-03-29T03:29:36.906Z,-75
2019-03-29T03:30:37.074Z,-75
2019-03-29T03:31:36.905Z,-75
2019-03-29T03:32:37.055Z,-74
2019-03-29T03:33:36.933Z,-76
2019-03-29T03:34:37.054Z,-74
2019-03-29T03:35:36.908Z,-74
2019-03-29T03:36:37.044Z,-74
2019-03-29T03:37:36.915Z,-74
2019-03-29T03:38:37.072Z,-74
2019-03-29T03:39:36.912Z,-74
2019-03-29T03:40:37.049Z,-74
2019-03-29T03:41:36.916Z,-74
2019-03-29T03:42:37.052Z,-75
2019-03-29T03:43:36.940Z,-75
2019-03-29T03:44:37.073Z,-75
2019-03-29T03:45:36.920Z,-75
2019-03-29T03:46:37.061Z,-75
2019-03-29T03:47:36.918Z,-75
2019-03-29T03:48:37.078Z,-75
2019-03-29T03:49:36.920Z,-75
2019-03-29T03:50:37.058Z,-75
2019-03-29T03:51:36.923Z,-76
2019-03-29T03:52:37.061Z,-74
2019-03-29T03:53:36.949Z,-74
2019-03-29T03:54:37.067Z,-74
2019-03-29T03:55:36.928Z,-74
2019-03-29T03:56:37.057Z,-75
2019-03-29T03:57:36.933Z,-75
2019-03-29T03:58:37.088Z,-73
2019-03-29T03:59:37.032Z,-73
2019-03-29T04:00:37.078Z,-72
2019-03-29T04:01:36.940Z,-73
2019-03-29T04:02:37.071Z,-73
2019-03-29T04:03:36.964Z,-73
2019-03-29T04:04:38.242Z,-73
2019-03-29T04:05:36.936Z,-73
2019-03-29T04:06:37.076Z,-73
2019-03-29T04:07:36.938Z,-73
2019-03-29T04:08:37.109Z,-73
2019-03-29T04:09:48.920Z,-73
2019-03-29T04:10:37.077Z,-73
2019-03-29T04:11:36.940Z,-73
2019-03-29T04:12:37.071Z,-73
2019-03-29T04:13:36.950Z,-73
2019-03-29T04:14:37.099Z,-73
2019-03-29T04:15:36.947Z,-73
2019-03-29T04:16:37.078Z,-73
2019-03-29T04:17:36.946Z,-73
2019-03-29T04:18:37.080Z,-73
2019-03-29T04:19:36.974Z,-74
2019-03-29T04:20:37.101Z,-74
2019-03-29T04:21:36.956Z,-74
2019-03-29T04:22:37.084Z,-74
2019-03-29T04:23:36.953Z,-74
2019-03-29T04:24:37.111Z,-74
2019-03-29T04:25:36.952Z,-74
2019-03-29T04:26:37.083Z,-74
2019-03-29T04:27:36.958Z,-74
2019-03-29T04:28:37.086Z,-74
2019-03-29T04:29:36.981Z,-74
2019-03-29T04:30:37.095Z,-74
2019-03-29T04:31:36.961Z,-74
2019-03-29T04:32:37.119Z,-74
2019-03-29T04:33:36.960Z,-74
2019-03-29T04:34:37.174Z,-74
2019-03-29T04:35:36.964Z,-74
2019-03-29T04:36:37.107Z,-74
2019-03-29T04:37:36.963Z,-74
2019-03-29T04:38:37.097Z,-74
2019-03-29T04:39:36.991Z,-74
2019-03-29T04:40:37.104Z,-74
2019-03-29T04:41:36.967Z,-74
2019-03-29T04:42:37.145Z,-74
2019-03-29T04:43:36.969Z,-74
2019-03-29T04:44:37.131Z,-74
2019-03-29T04:45:36.972Z,-74
2019-03-29T04:46:37.109Z,-74
2019-03-29T04:47:36.974Z,-74
2019-03-29T04:48:37.113Z,-74
2019-03-29T04:49:36.997Z,-74
2019-03-29T04:50:37.106Z,-74
2019-03-29T04:51:36.976Z,-74
2019-03-29T04:52:37.123Z,-74
2019-03-29T04:53:36.980Z,-74
2019-03-29T04:54:37.139Z,-74
2019-03-29T04:55:36.978Z,-74
2019-03-29T04:56:37.113Z,-74
2019-03-29T04:57:36.981Z,-74
2019-03-29T04:58:37.115Z,-74
2019-03-29T04:59:37.014Z,-74
2019-03-29T05:00:37.125Z,-74
2019-03-29T05:01:36.985Z,-74
2019-03-29T05:02:37.120Z,-74
2019-03-29T05:03:36.987Z,-74
2019-03-29T05:04:37.157Z,-73
2019-03-29T05:05:37.063Z,-73
2019-03-29T05:06:37.122Z,-73
2019-03-29T05:07:37.345Z,-73
2019-03-29T05:08:37.130Z,-73
2019-03-29T05:09:37.019Z,-73
2019-03-29T05:10:37.130Z,-73
2019-03-29T05:11:36.993Z,-74
2019-03-29T05:12:37.130Z,-74
2019-03-29T05:13:36.996Z,-74
2019-03-29T05:14:37.156Z,-74
2019-03-29T05:15:36.997Z,-74
2019-03-29T05:16:37.132Z,-74
2019-03-29T05:17:36.998Z,-74
2019-03-29T05:18:37.134Z,-74
2019-03-29T05:19:37.044Z,-74
2019-03-29T05:20:37.133Z,-75
2019-03-29T05:21:37.003Z,-75
2019-03-29T05:22:37.203Z,-75
2019-03-29T05:23:37.006Z,-73
2019-03-29T05:24:37.159Z,-74
2019-03-29T05:25:37.005Z,-74
2019-03-29T05:26:37.139Z,-74
2019-03-29T05:27:37.009Z,-74
2019-03-29T05:28:37.152Z,-74
2019-03-29T05:29:37.035Z,-75
2019-03-29T05:30:37.142Z,-75
2019-03-29T05:31:37.013Z,-75
2019-03-29T05:32:37.144Z,-75
2019-03-29T05:33:37.012Z,-75
2019-03-29T05:34:37.142Z,-72
2019-03-29T05:35:37.038Z,-71
2019-03-29T05:36:37.150Z,-71
2019-03-29T05:37:37.017Z,-72
2019-03-29T05:38:37.147Z,-72
2019-03-29T05:39:37.018Z,-72
2019-03-29T05:40:37.174Z,-72
2019-03-29T05:41:37.020Z,-72
2019-03-29T05:42:37.151Z,-72
2019-03-29T05:43:37.029Z,-72
2019-03-29T05:44:37.152Z,-72
2019-03-29T05:45:37.048Z,-72
2019-03-29T05:46:37.156Z,-72
2019-03-29T05:47:37.028Z,-72
2019-03-29T05:48:37.156Z,-72
2019-03-29T05:49:37.027Z,-72
2019-03-29T05:50:37.517Z,-72
2019-03-29T05:51:37.028Z,-72
2019-03-29T05:52:37.165Z,-72
2019-03-29T05:53:38.054Z,-72
2019-03-29T05:54:37.164Z,-72
2019-03-29T05:55:37.057Z,-72
2019-03-29T05:56:37.163Z,-72
2019-03-29T05:57:37.033Z,-72
2019-03-29T05:58:37.170Z,-71
2019-03-29T05:59:37.157Z,-72
2019-03-29T06:00:37.194Z,-71
2019-03-29T06:01:37.037Z,-72
2019-03-29T06:02:37.172Z,-72
2019-03-29T06:03:37.042Z,-72
2019-03-29T06:04:37.169Z,-72
2019-03-29T06:05:37.090Z,-72
2019-03-29T06:06:37.176Z,-72
2019-03-29T06:07:37.043Z,-72
2019-03-29T06:08:37.186Z,-72
2019-03-29T06:09:37.045Z,-72
2019-03-29T06:10:49.645Z,-72
2019-03-29T06:11:37.046Z,-72
2019-03-29T06:12:37.180Z,-72
2019-03-29T06:13:37.048Z,-72
2019-03-29T06:14:37.255Z,-72
2019-03-29T06:15:37.075Z,-72
2019-03-29T06:16:39.641Z,-72
2019-03-29T06:17:47.829Z,-72
2019-03-29T06:18:37.198Z,-72
2019-03-29T06:19:37.053Z,-72
2019-03-29T06:20:37.211Z,-72
2019-03-29T06:21:37.056Z,-73
2019-03-29T06:22:37.189Z,-73
2019-03-29T06:23:37.058Z,-72
2019-03-29T06:24:37.188Z,-72
2019-03-29T06:25:37.083Z,-72
2019-03-29T06:26:37.197Z,-72
2019-03-29T06:27:37.058Z,-72
2019-03-29T06:28:37.190Z,-72
2019-03-29T06:29:37.061Z,-72
2019-03-29T06:30:37.218Z,-72
2019-03-29T06:31:37.064Z,-72
2019-03-29T06:32:37.198Z,-72
2019-03-29T06:33:37.065Z,-72
2019-03-29T06:34:37.200Z,-72
2019-03-29T06:35:37.093Z,-72
2019-03-29T06:36:37.198Z,-72
2019-03-29T06:37:37.071Z,-72
2019-03-29T06:38:37.201Z,-72
2019-03-29T06:39:37.070Z,-72
2019-03-29T06:40:37.238Z,-72
2019-03-29T06:41:37.073Z,-71
2019-03-29T06:42:37.209Z,-72
2019-03-29T06:43:37.076Z,-72
2019-03-29T06:44:37.206Z,-72
2019-03-29T06:45:47.070Z,-72
2019-03-29T06:46:37.209Z,-72
2019-03-29T06:47:37.078Z,-72
2019-03-29T06:48:37.212Z,-72
2019-03-29T06:49:37.079Z,-72
2019-03-29T06:50:37.339Z,-72
2019-03-29T06:51:37.081Z,-72
2019-03-29T06:52:37.213Z,-72
2019-03-29T06:53:37.086Z,-72
2019-03-29T06:54:37.218Z,-72
2019-03-29T06:55:37.108Z,-72
2019-03-29T06:56:37.223Z,-72
2019-03-29T06:57:37.089Z,-72
2019-03-29T06:58:37.222Z,-72
2019-03-29T06:59:37.086Z,-72
2019-03-29T07:00:37.264Z,-72
2019-03-29T07:01:37.089Z,-72
2019-03-29T07:02:37.222Z,-73
2019-03-29T07:03:37.095Z,-72
2019-03-29T07:04:37.229Z,-72
2019-03-29T07:05:37.094Z,-72
2019-03-29T07:06:37.260Z,-72
2019-03-29T07:07:37.098Z,-72
2019-03-29T07:08:37.227Z,-72
2019-03-29T07:09:37.097Z,-72
2019-03-29T07:10:37.228Z,-72
2019-03-29T07:11:39.593Z,-72
2019-03-29T07:12:37.227Z,-72
2019-03-29T07:13:37.101Z,-72
2019-03-29T07:14:37.235Z,-72
2019-03-29T07:15:37.107Z,-72
2019-03-29T07:16:37.285Z,-72
2019-03-29T07:17:37.104Z,-72
2019-03-29T07:18:37.241Z,-72
2019-03-29T07:19:37.107Z,-72
2019-03-29T07:20:37.241Z,-72
2019-03-29T07:21:37.132Z,-72
2019-03-29T07:22:37.240Z,-72
2019-03-29T07:23:37.111Z,-72
2019-03-29T07:24:37.249Z,-72
2019-03-29T07:25:37.115Z,-72
2019-03-29T07:26:37.280Z,-72
2019-03-29T07:27:44.159Z,-72
2019-03-29T07:28:37.245Z,-72
2019-03-29T07:29:37.115Z,-72
2019-03-29T07:30:37.243Z,-72
2019-03-29T07:31:37.141Z,-72
2019-03-29T07:32:37.248Z,-72
2019-03-29T07:33:37.118Z,-72
2019-03-29T07:34:37.250Z,-72
2019-03-29T07:35:37.121Z,-72
2019-03-29T07:36:37.277Z,-72
2019-03-29T07:37:37.123Z,-72
2019-03-29T07:38:37.259Z,-72
2019-03-29T07:39:37.122Z,-72
2019-03-29T07:40:37.256Z,-72
2019-03-29T07:41:37.154Z,-72
2019-03-29T07:42:37.259Z,-72
2019-03-29T07:43:37.128Z,-72
2019-03-29T07:44:37.259Z,-69
2019-03-29T07:45:37.130Z,-69
2019-03-29T07:46:37.283Z,-69
2019-03-29T07:47:37.130Z,-70
2019-03-29T07:48:40.723Z,-69
2019-03-29T07:49:37.131Z,-70
2019-03-29T07:50:37.269Z,-69
2019-03-29T07:51:37.159Z,-69
2019-03-29T07:52:37.266Z,-69
2019-03-29T07:53:37.137Z,-69
2019-03-29T07:54:37.274Z,-69
2019-03-29T07:55:37.609Z,-69
2019-03-29T07:56:37.294Z,-69
2019-03-29T07:57:37.141Z,-69
2019-03-29T07:58:37.273Z,-69
2019-03-29T07:59:37.143Z,-70
2019-03-29T08:00:37.275Z,-69
2019-03-29T08:01:37.168Z,-69
2019-03-29T08:02:37.283Z,-69
2019-03-29T08:03:37.145Z,-70
2019-03-29T08:04:37.278Z,-69
2019-03-29T08:05:37.145Z,-69
2019-03-29T08:06:37.305Z,-69
2019-03-29T08:07:37.148Z,-69
2019-03-29T08:08:37.280Z,-69
2019-03-29T08:09:37.158Z,-69
2019-03-29T08:10:37.285Z,-69
2019-03-29T08:11:45.881Z,-70
2019-03-29T08:12:40.836Z,-69
2019-03-29T08:13:37.155Z,-69
2019-03-29T08:14:37.285Z,-69
2019-03-29T08:15:37.156Z,-69
2019-03-29T08:16:37.528Z,-69
2019-03-29T08:17:37.158Z,-69
2019-03-29T08:18:37.292Z,-69
2019-03-29T08:19:37.459Z,-69
2019-03-29T08:20:44.254Z,-69
2019-03-29T08:21:37.188Z,-69
2019-03-29T08:22:37.295Z,-69
2019-03-29T08:23:37.164Z,-69
2019-03-29T08:24:37.298Z,-69
2019-03-29T08:25:37.164Z,-69
2019-03-29T08:26:37.336Z,-69
2019-03-29T08:27:37.167Z,-69
2019-03-29T08:28:37.298Z,-69
2019-03-29T08:29:37.169Z,-69
2019-03-29T08:30:37.301Z,-70
2019-03-29T08:31:37.171Z,-70
2019-03-29T08:32:37.333Z,-70
2019-03-29T08:33:37.171Z,-70
2019-03-29T08:34:37.307Z,-70
2019-03-29T08:35:37.176Z,-70
2019-03-29T08:36:37.310Z,-70
2019-03-29T08:37:37.200Z,-69
2019-03-29T08:38:37.308Z,-69
2019-03-29T08:39:37.180Z,-69
2019-03-29T08:40:37.332Z,-69
2019-03-29T08:41:37.183Z,-70
2019-03-29T08:42:37.341Z,-70
2019-03-29T08:43:37.181Z,-70
2019-03-29T08:44:37.316Z,-70
2019-03-29T08:45:37.183Z,-70
2019-03-29T08:46:37.324Z,-70
2019-03-29T08:47:37.212Z,-70
2019-03-29T08:48:37.317Z,-70
2019-03-29T08:49:37.186Z,-70
2019-03-29T08:50:37.318Z,-70
2019-03-29T08:51:37.194Z,-70
2019-03-29T08:52:37.349Z,-70
2019-03-29T08:53:37.191Z,-70
2019-03-29T08:54:37.326Z,-70
2019-03-29T08:55:45.393Z,-69
2019-03-29T08:56:37.333Z,-69
2019-03-29T08:57:37.218Z,-69
2019-03-29T08:58:37.328Z,-70
2019-03-29T08:59:37.197Z,-70
2019-03-29T09:00:37.335Z,-70
2019-03-29T09:01:37.197Z,-70
2019-03-29T09:02:37.361Z,-70
2019-03-29T09:03:40.079Z,-70
2019-03-29T09:04:37.331Z,-70
2019-03-29T09:05:39.094Z,-70
2019-03-29T09:06:37.333Z,-70
2019-03-29T09:07:44.283Z,-70
2019-03-29T09:08:37.344Z,-70
2019-03-29T09:09:37.205Z,-70
2019-03-29T09:10:37.338Z,-70
2019-03-29T09:11:38.865Z,-70
2019-03-29T09:12:37.365Z,-70
2019-03-29T09:13:37.209Z,-70
2019-03-29T09:14:37.357Z,-70
2019-03-29T09:15:37.211Z,-70
2019-03-29T09:16:37.347Z,-70
2019-03-29T09:17:37.236Z,-70
2019-03-29T09:18:37.344Z,-70
2019-03-29T09:19:37.214Z,-70
2019-03-29T09:20:37.345Z,-70
2019-03-29T09:21:37.216Z,-70
2019-03-29T09:22:37.375Z,-70
2019-03-29T09:23:37.217Z,-70
2019-03-29T09:24:37.352Z,-70
2019-03-29T09:25:40.241Z,-70
2019-03-29T09:26:37.352Z,-70
2019-03-29T09:27:37.248Z,-70
2019-03-29T09:28:37.361Z,-70
2019-03-29T09:29:37.226Z,-70
2019-03-29T09:30:37.356Z,-70
2019-03-29T09:31:37.226Z,-70
2019-03-29T09:32:37.416Z,-70
2019-03-29T09:33:37.227Z,-70
2019-03-29T09:34:37.366Z,-70
2019-03-29T09:35:37.230Z,-70
2019-03-29T09:36:37.361Z,-70
2019-03-29T09:37:37.256Z,-70
2019-03-29T09:38:37.361Z,-70
2019-03-29T09:39:37.233Z,-70
2019-03-29T09:40:37.365Z,-70
2019-03-29T09:41:37.235Z,-70
2019-03-29T09:42:37.405Z,-70
2019-03-29T09:43:37.236Z,-71
2019-03-29T09:44:37.367Z,-70
2019-03-29T09:45:37.239Z,-70
2019-03-29T09:46:37.374Z,-70
2019-03-29T09:47:40.481Z,-70
2019-03-29T09:48:37.374Z,-70
2019-03-29T09:49:37.243Z,-70
2019-03-29T09:50:37.372Z,-70
2019-03-29T09:51:37.307Z,-70
2019-03-29T09:52:37.413Z,-70
2019-03-29T09:53:40.748Z,-70
2019-03-29T09:54:37.381Z,-70
2019-03-29T09:55:37.249Z,-70
2019-03-29T09:56:39.710Z,-70
2019-03-29T09:57:38.179Z,-70
2019-03-29T09:58:37.407Z,-70
2019-03-29T09:59:37.251Z,-70
2019-03-29T10:00:37.392Z,-70
2019-03-29T10:01:37.252Z,-70
2019-03-29T10:02:37.385Z,-70
2019-03-29T10:03:37.281Z,-70
2019-03-29T10:04:37.385Z,-70
2019-03-29T10:05:37.257Z,-70
2019-03-29T10:06:37.403Z,-70
2019-03-29T10:07:37.260Z,-70
2019-03-29T10:08:37.420Z,-70
2019-03-29T10:09:37.261Z,-70
2019-03-29T10:10:37.397Z,-70
2019-03-29T10:11:37.264Z,-70
2019-03-29T10:12:44.189Z,-70
2019-03-29T10:13:37.290Z,-70
2019-03-29T10:14:37.398Z,-71
2019-03-29T10:15:37.266Z,-71
2019-03-29T10:16:37.404Z,-70
2019-03-29T10:17:37.266Z,-70
2019-03-29T10:18:37.445Z,-70
2019-03-29T10:19:37.268Z,-70
2019-03-29T10:20:37.402Z,-70
2019-03-29T10:21:37.273Z,-70
2019-03-29T10:22:37.404Z,-70
2019-03-29T10:23:37.299Z,-70
2019-03-29T10:24:37.409Z,-70
2019-03-29T10:25:37.276Z,-70
2019-03-29T10:26:37.407Z,-70
2019-03-29T10:27:37.277Z,-70
2019-03-29T10:28:37.432Z,-70
2019-03-29T10:29:37.280Z,-70
2019-03-29T10:30:37.417Z,-70
2019-03-29T10:31:37.283Z,-70
2019-03-29T10:32:37.414Z,-70
2019-03-29T10:33:37.313Z,-72
2019-03-29T10:34:37.866Z,-73
2019-03-29T10:35:50.557Z,-73
2019-03-29T10:36:37.418Z,-73
2019-03-29T10:37:37.287Z,-73
2019-03-29T10:38:37.445Z,-72
2019-03-29T10:39:37.289Z,-72
2019-03-29T10:40:37.421Z,-72
2019-03-29T10:41:38.004Z,-72
2019-03-29T10:42:40.529Z,-72
2019-03-29T10:43:37.316Z,-72
2019-03-29T10:44:37.428Z,-72
2019-03-29T10:45:40.237Z,-73
2019-03-29T10:46:37.426Z,-73
2019-03-29T10:47:43.429Z,-72
2019-03-29T10:48:37.452Z,-72
2019-03-29T10:49:37.300Z,-72
2019-03-29T10:50:37.442Z,-72
2019-03-29T10:51:37.300Z,-72
2019-03-29T10:52:37.431Z,-72
2019-03-29T10:53:37.338Z,-73
2019-03-29T10:54:37.441Z,-73
2019-03-29T10:55:37.304Z,-73
2019-03-29T10:56:37.440Z,-73
2019-03-29T10:57:37.306Z,-73
2019-03-29T10:58:37.463Z,-73
2019-03-29T10:59:37.308Z,-73
2019-03-29T11:00:37.492Z,-73
2019-03-29T11:01:37.318Z,-72
2019-03-29T11:02:37.441Z,-72
2019-03-29T11:03:37.335Z,-72
2019-03-29T11:04:37.445Z,-73
2019-03-29T11:05:37.314Z,-73
2019-03-29T11:06:37.446Z,-73
2019-03-29T11:07:37.314Z,-73
2019-03-29T11:08:37.471Z,-73
2019-03-29T11:09:37.356Z,-73
2019-03-29T11:10:37.463Z,-73
2019-03-29T11:11:37.321Z,-73
2019-03-29T11:12:37.450Z,-73
2019-03-29T11:13:40.734Z,-73
2019-03-29T11:14:37.464Z,-73
2019-03-29T11:15:37.321Z,-73
2019-03-29T11:16:37.458Z,-73
2019-03-29T11:17:37.326Z,-71
2019-03-29T11:18:37.503Z,-70
2019-03-29T11:19:37.329Z,-70
2019-03-29T11:20:37.541Z,-70
2019-03-29T11:21:37.338Z,-70
2019-03-29T11:22:37.558Z,-70
2019-03-29T11:23:37.330Z,-70
2019-03-29T11:24:37.487Z,-70
2019-03-29T11:25:37.334Z,-70
2019-03-29T11:26:37.463Z,-70
2019-03-29T11:27:37.335Z,-70
2019-03-29T11:28:37.467Z,-70
2019-03-29T11:29:37.364Z,-70
2019-03-29T11:30:43.189Z,-70
2019-03-29T11:31:37.337Z,-70
2019-03-29T11:32:37.475Z,-71
2019-03-29T11:33:37.340Z,-72
2019-03-29T11:34:37.501Z,-72
2019-03-29T11:35:37.342Z,-72
2019-03-29T11:36:37.477Z,-72
2019-03-29T11:37:37.359Z,-73
2019-03-29T11:38:37.479Z,-73
2019-03-29T11:39:37.370Z,-73
2019-03-29T11:40:37.487Z,-73
2019-03-29T11:41:37.347Z,-73
2019-03-29T11:42:37.488Z,-73
2019-03-29T11:43:37.348Z,-73
2019-03-29T11:44:37.518Z,-73
2019-03-29T11:45:37.351Z,-73
2019-03-29T11:46:37.488Z,-71
2019-03-29T11:47:37.355Z,-71
2019-03-29T11:48:37.496Z,-71
2019-03-29T11:49:37.382Z,-71
2019-03-29T11:50:37.494Z,-71
2019-03-29T11:51:37.364Z,-70
2019-03-29T11:52:37.514Z,-70
2019-03-29T11:53:37.361Z,-70
2019-03-29T11:54:37.518Z,-70
2019-03-29T11:55:37.362Z,-70
2019-03-29T11:56:37.495Z,-70
2019-03-29T11:57:37.363Z,-70
2019-03-29T11:58:37.500Z,-70
2019-03-29T11:59:40.102Z,-70
2019-03-29T12:00:37.514Z,-70
2019-03-29T12:01:37.367Z,-71
2019-03-29T12:02:37.498Z,-70
2019-03-29T12:03:37.763Z,-70
2019-03-29T12:04:37.769Z,-70
2019-03-29T12:05:37.372Z,-70
2019-03-29T12:06:37.513Z,-70
2019-03-29T12:07:37.374Z,-70
2019-03-29T12:08:37.506Z,-70
2019-03-29T12:09:37.398Z,-71
2019-03-29T12:10:37.534Z,-71
2019-03-29T12:11:37.379Z,-71
2019-03-29T12:12:37.511Z,-71
2019-03-29T12:13:41.150Z,-70
2019-03-29T12:14:37.548Z,-70
2019-03-29T12:15:37.382Z,-70
2019-03-29T12:16:37.513Z,-70
2019-03-29T12:17:37.384Z,-70
2019-03-29T12:18:37.516Z,-70
2019-03-29T12:19:37.410Z,-71
2019-03-29T12:20:37.521Z,-71
2019-03-29T12:21:37.385Z,-71
2019-03-29T12:22:37.517Z,-70
2019-03-29T12:23:37.387Z,-70
2019-03-29T12:24:37.628Z,-70
2019-03-29T12:25:37.392Z,-70
2019-03-29T12:26:37.525Z,-70
2019-03-29T12:27:37.394Z,-70
2019-03-29T12:28:37.529Z,-70
2019-03-29T12:29:37.430Z,-70
2019-03-29T12:30:37.528Z,-71
2019-03-29T12:31:37.397Z,-71
2019-03-29T12:32:37.530Z,-71
2019-03-29T12:33:37.398Z,-71
2019-03-29T12:34:37.555Z,-71
2019-03-29T12:35:37.399Z,-71
2019-03-29T12:36:37.533Z,-71
2019-03-29T12:37:37.402Z,-71
2019-03-29T12:38:37.532Z,-71
2019-03-29T12:39:37.429Z,-71
2019-03-29T12:40:37.586Z,-71
2019-03-29T12:41:37.405Z,-71
2019-03-29T12:42:37.540Z,-71
2019-03-29T12:43:37.409Z,-71
2019-03-29T12:44:37.566Z,-71
2019-03-29T12:45:37.412Z,-71
2019-03-29T12:46:37.542Z,-71
2019-03-29T12:47:37.413Z,-71
2019-03-29T12:48:37.548Z,-71
2019-03-29T12:49:37.438Z,-71
2019-03-29T12:50:37.570Z,-72
2019-03-29T12:51:37.421Z,-71
2019-03-29T12:52:37.551Z,-72
2019-03-29T12:53:37.417Z,-71
2019-03-29T12:54:37.579Z,-71
2019-03-29T12:55:37.423Z,-71
2019-03-29T12:56:37.559Z,-71
2019-03-29T12:57:39.058Z,-71
2019-03-29T12:58:37.555Z,-71
2019-03-29T12:59:37.447Z,-71
2019-03-29T13:00:37.557Z,-71
2019-03-29T13:01:39.513Z,-71
2019-03-29T13:02:37.641Z,-71
2019-03-29T13:03:37.429Z,-71
2019-03-29T13:04:37.585Z,-71
2019-03-29T13:05:37.471Z,-71
2019-03-29T13:06:37.565Z,-71
2019-03-29T13:07:37.433Z,-71
2019-03-29T13:08:37.821Z,-71
2019-03-29T13:09:39.718Z,-71
2019-03-29T13:10:37.572Z,-71
2019-03-29T13:11:37.435Z,-71
2019-03-29T13:12:37.580Z,-71
2019-03-29T13:13:37.436Z,-71
2019-03-29T13:14:37.648Z,-71
2019-03-29T13:15:37.439Z,-71
2019-03-29T13:16:37.571Z,-71
2019-03-29T13:17:37.442Z,-71
2019-03-29T13:18:37.575Z,-71
2019-03-29T13:19:37.443Z,-71
2019-03-29T13:20:37.605Z,-71
2019-03-29T13:21:38.922Z,-71
2019-03-29T13:22:37.579Z,-71
2019-03-29T13:23:37.449Z,-71
2019-03-29T13:24:37.583Z,-71
2019-03-29T13:25:37.512Z,-71
2019-03-29T13:26:37.634Z,-71
2019-03-29T13:27:37.475Z,-71
2019-03-29T13:28:37.581Z,-71
2019-03-29T13:29:37.452Z,-71
2019-03-29T13:30:37.673Z,-71
2019-03-29T13:31:37.454Z,-71
2019-03-29T13:32:37.587Z,-71
2019-03-29T13:33:37.460Z,-71
2019-03-29T13:34:37.587Z,-71
2019-03-29T13:35:37.488Z,-71
2019-03-29T13:36:37.597Z,-71
2019-03-29T13:37:37.472Z,-71
2019-03-29T13:38:37.594Z,-71
2019-03-29T13:39:37.466Z,-71
2019-03-29T13:40:37.643Z,-71
2019-03-29T13:41:37.465Z,-71
2019-03-29T13:42:37.603Z,-71
2019-03-29T13:43:37.465Z,-71
2019-03-29T13:44:37.595Z,-71
2019-03-29T13:45:37.497Z,-71
2019-03-29T13:46:37.603Z,-71